KJC603 UNKL-UOOO
Flight info
| Callsign | KJC603 |
|---|---|
| Flight time | 2h 33m |
| Altitude | 32000 |
| Route | N0450F320 BASEL B938 SURIP B247 WD A228 PTG G490 OLURI |
| Aircraft | T204/M-Q/L |
Departure
| Time | 2026-04-22 13:10 |
|---|---|
| Airport | Krasnoyarsk International Airport (UNKL) |
Arrival
| Time | 2026-04-22 15:43 |
|---|---|
| Airport | Alykel International Airport (UOOO) |
| Time | Latitude | Longitude | Altitude | Speed | Heading |
|---|---|---|---|---|---|
| 2026-04-22 12:18 | 56.18080 | 92.47456 | 943 ft | 0 kts | 23° |
| 2026-04-22 12:38 | 56.18082 | 92.47458 | 943 ft | 2 kts | 23° |
| 2026-04-22 12:38 | 56.18131 | 92.47479 | 943 ft | 8 kts | 340° |
| 2026-04-22 12:38 | 56.18166 | 92.47394 | 943 ft | 9 kts | 293° |
| 2026-04-22 12:39 | 56.18194 | 92.47273 | 943 ft | 11 kts | 292° |
| 2026-04-22 12:39 | 56.18265 | 92.46970 | 943 ft | 14 kts | 292° |
| 2026-04-22 12:39 | 56.18236 | 92.46826 | 943 ft | 12 kts | 206° |
| 2026-04-22 12:40 | 56.18162 | 92.46768 | 943 ft | 10 kts | 202° |
| 2026-04-22 12:40 | 56.18103 | 92.46725 | 943 ft | 8 kts | 202° |
| 2026-04-22 12:40 | 56.18064 | 92.46696 | 943 ft | 0 kts | 202° |
| 2026-04-22 13:08 | 56.18063 | 92.46694 | 943 ft | 2 kts | 202° |
| 2026-04-22 13:09 | 56.18009 | 92.46654 | 943 ft | 14 kts | 202° |
| 2026-04-22 13:09 | 56.17931 | 92.46693 | 943 ft | 11 kts | 128° |
| 2026-04-22 13:09 | 56.17856 | 92.46946 | 943 ft | 51 kts | 112° |
| 2026-04-22 13:09 | 56.17602 | 92.48014 | 944 ft | 133 kts | 112° |
| 2026-04-22 13:10 | 56.17165 | 92.49824 | 1392 ft | 169 kts | 113° |
| 2026-04-22 13:10 | 56.16683 | 92.51734 | 2256 ft | 174 kts | 113° |
| 2026-04-22 13:10 | 56.16164 | 92.53835 | 2547 ft | 198 kts | 111° |
| 2026-04-22 13:10 | 56.15599 | 92.56222 | 3043 ft | 218 kts | 111° |
| 2026-04-22 13:11 | 56.15005 | 92.58707 | 3982 ft | 219 kts | 111° |
| 2026-04-22 13:11 | 56.14412 | 92.61214 | 4822 ft | 224 kts | 110° |
| 2026-04-22 13:11 | 56.13810 | 92.63786 | 5676 ft | 227 kts | 110° |
| 2026-04-22 13:11 | 56.13205 | 92.66367 | 6508 ft | 231 kts | 111° |
| 2026-04-22 13:12 | 56.12678 | 92.69114 | 7236 ft | 237 kts | 92° |
| 2026-04-22 13:12 | 56.13158 | 92.71888 | 7926 ft | 240 kts | 49° |
| 2026-04-22 13:12 | 56.14393 | 92.73770 | 8746 ft | 237 kts | 25° |
| 2026-04-22 13:12 | 56.15952 | 92.74596 | 9508 ft | 235 kts | 360° |
| 2026-04-22 13:13 | 56.17509 | 92.74161 | 10351 ft | 229 kts | 336° |
| 2026-04-22 13:13 | 56.18906 | 92.72932 | 11212 ft | 225 kts | 330° |
| 2026-04-22 13:13 | 56.20296 | 92.71568 | 11762 ft | 236 kts | 329° |
| 2026-04-22 13:13 | 56.21775 | 92.70081 | 12086 ft | 253 kts | 328° |
| 2026-04-22 13:14 | 56.23336 | 92.68505 | 12702 ft | 260 kts | 328° |
| 2026-04-22 13:14 | 56.24884 | 92.66945 | 13487 ft | 260 kts | 328° |
| 2026-04-22 13:14 | 56.26455 | 92.65357 | 14249 ft | 260 kts | 328° |
| 2026-04-22 13:14 | 56.28014 | 92.63783 | 14982 ft | 260 kts | 327° |
| 2026-04-22 13:15 | 56.29598 | 92.62175 | 15515 ft | 268 kts | 327° |
| 2026-04-22 13:15 | 56.31251 | 92.60487 | 15820 ft | 281 kts | 327° |
| 2026-04-22 13:15 | 56.32978 | 92.58716 | 16181 ft | 292 kts | 327° |
| 2026-04-22 13:15 | 56.34771 | 92.56878 | 16622 ft | 300 kts | 327° |
| 2026-04-22 13:16 | 56.36583 | 92.55015 | 17243 ft | 302 kts | 327° |
| 2026-04-22 13:16 | 56.38387 | 92.53152 | 17873 ft | 302 kts | 327° |
| 2026-04-22 13:16 | 56.40204 | 92.51277 | 18444 ft | 304 kts | 327° |
| 2026-04-22 13:16 | 56.42032 | 92.49395 | 18991 ft | 305 kts | 327° |
| 2026-04-22 13:17 | 56.43868 | 92.47484 | 19523 ft | 307 kts | 326° |
| 2026-04-22 13:17 | 56.45486 | 92.45046 | 20003 ft | 307 kts | 310° |
| 2026-04-22 13:17 | 56.46790 | 92.42002 | 20582 ft | 307 kts | 308° |
| 2026-04-22 13:17 | 56.48063 | 92.38909 | 21048 ft | 310 kts | 307° |
| 2026-04-22 13:18 | 56.49342 | 92.35744 | 21510 ft | 312 kts | 307° |
| 2026-04-22 13:18 | 56.50607 | 92.32605 | 22009 ft | 314 kts | 306° |
| 2026-04-22 13:18 | 56.51894 | 92.29423 | 22479 ft | 315 kts | 307° |
| 2026-04-22 13:18 | 56.53192 | 92.26221 | 22936 ft | 317 kts | 307° |
| 2026-04-22 13:19 | 56.54494 | 92.22992 | 23386 ft | 319 kts | 307° |
| 2026-04-22 13:19 | 56.55810 | 92.19745 | 23829 ft | 321 kts | 307° |
| 2026-04-22 13:19 | 56.57121 | 92.16494 | 24262 ft | 322 kts | 307° |
| 2026-04-22 13:19 | 56.58442 | 92.13219 | 24666 ft | 324 kts | 307° |
| 2026-04-22 13:20 | 56.59775 | 92.09902 | 25048 ft | 327 kts | 307° |
| 2026-04-22 13:20 | 56.61115 | 92.06578 | 25435 ft | 329 kts | 307° |
| 2026-04-22 13:20 | 56.62461 | 92.03223 | 25793 ft | 331 kts | 307° |
| 2026-04-22 13:20 | 56.63798 | 91.99892 | 26171 ft | 333 kts | 307° |
| 2026-04-22 13:21 | 56.65174 | 91.96460 | 26551 ft | 334 kts | 307° |
| 2026-04-22 13:21 | 56.66535 | 91.93061 | 27013 ft | 334 kts | 307° |
| 2026-04-22 13:21 | 56.67871 | 91.89714 | 27500 ft | 332 kts | 307° |
| 2026-04-22 13:21 | 56.69236 | 91.86297 | 27983 ft | 330 kts | 307° |
| 2026-04-22 13:22 | 56.70567 | 91.82964 | 28432 ft | 329 kts | 307° |
| 2026-04-22 13:22 | 56.71898 | 91.79613 | 28861 ft | 329 kts | 307° |
| 2026-04-22 13:22 | 56.73233 | 91.76254 | 29265 ft | 328 kts | 307° |
| 2026-04-22 13:22 | 56.74567 | 91.72922 | 29696 ft | 327 kts | 309° |
| 2026-04-22 13:23 | 56.76210 | 91.70091 | 30065 ft | 328 kts | 321° |
| 2026-04-22 13:23 | 56.77994 | 91.67586 | 30520 ft | 326 kts | 321° |
| 2026-04-22 13:23 | 56.79788 | 91.65102 | 30965 ft | 324 kts | 321° |
| 2026-04-22 13:23 | 56.81573 | 91.62639 | 31342 ft | 324 kts | 321° |
| 2026-04-22 13:24 | 56.83392 | 91.60124 | 31322 ft | 334 kts | 321° |
| 2026-04-22 13:24 | 56.87180 | 91.54879 | 31358 ft | 351 kts | 321° |
| 2026-04-22 13:24 | 56.89132 | 91.52168 | 31529 ft | 354 kts | 321° |
| 2026-04-22 13:25 | 56.91086 | 91.49466 | 31816 ft | 354 kts | 321° |
| 2026-04-22 13:25 | 56.93041 | 91.46765 | 32090 ft | 354 kts | 321° |
| 2026-04-22 13:25 | 56.95029 | 91.44041 | 32388 ft | 354 kts | 323° |
| 2026-04-22 13:25 | 56.97223 | 91.42084 | 32591 ft | 363 kts | 339° |
| 2026-04-22 13:26 | 56.99668 | 91.40982 | 32936 ft | 363 kts | 341° |
| 2026-04-22 13:26 | 57.02127 | 91.39985 | 33193 ft | 364 kts | 343° |
| 2026-04-22 13:26 | 57.04626 | 91.39054 | 33431 ft | 364 kts | 343° |
| 2026-04-22 13:26 | 57.07104 | 91.38162 | 33625 ft | 365 kts | 343° |
| 2026-04-22 13:27 | 57.09580 | 91.37281 | 33811 ft | 365 kts | 343° |
| 2026-04-22 13:27 | 57.12064 | 91.36410 | 34012 ft | 366 kts | 343° |
| 2026-04-22 13:27 | 57.14600 | 91.35520 | 34134 ft | 372 kts | 343° |
| 2026-04-22 13:28 | 57.19635 | 91.33746 | 34112 ft | 366 kts | 343° |
| 2026-04-22 13:28 | 57.24587 | 91.32018 | 34136 ft | 363 kts | 343° |
| 2026-04-22 13:29 | 57.29541 | 91.30299 | 34132 ft | 364 kts | 343° |
| 2026-04-22 13:29 | 57.34510 | 91.28568 | 34139 ft | 365 kts | 343° |
| 2026-04-22 13:30 | 57.39489 | 91.26836 | 34142 ft | 364 kts | 343° |
| 2026-04-22 13:30 | 57.44447 | 91.25104 | 34140 ft | 364 kts | 343° |
| 2026-04-22 13:31 | 57.49402 | 91.23380 | 34142 ft | 364 kts | 343° |
| 2026-04-22 13:31 | 57.54368 | 91.21650 | 34137 ft | 364 kts | 343° |
| 2026-04-22 13:32 | 57.59331 | 91.19921 | 34133 ft | 365 kts | 343° |
| 2026-04-22 13:32 | 57.64272 | 91.18198 | 34144 ft | 365 kts | 343° |
| 2026-04-22 13:33 | 57.69249 | 91.16471 | 34139 ft | 364 kts | 344° |
| 2026-04-22 13:33 | 57.74202 | 91.14739 | 34138 ft | 364 kts | 344° |
| 2026-04-22 13:34 | 57.79174 | 91.13009 | 34148 ft | 364 kts | 344° |
| 2026-04-22 13:34 | 57.84135 | 91.11284 | 34152 ft | 364 kts | 344° |
| 2026-04-22 13:35 | 57.89077 | 91.09553 | 34155 ft | 364 kts | 344° |
| 2026-04-22 13:35 | 57.94038 | 91.07830 | 34146 ft | 364 kts | 344° |
| 2026-04-22 13:36 | 57.98996 | 91.06100 | 34154 ft | 363 kts | 344° |
| 2026-04-22 13:36 | 58.03947 | 91.04378 | 34156 ft | 364 kts | 344° |
| 2026-04-22 13:37 | 58.08897 | 91.02659 | 34149 ft | 363 kts | 344° |
| 2026-04-22 13:37 | 58.13881 | 91.00918 | 34169 ft | 364 kts | 344° |
| 2026-04-22 13:38 | 58.18846 | 90.99190 | 34171 ft | 365 kts | 344° |
| 2026-04-22 13:38 | 58.26271 | 90.96604 | 34166 ft | 364 kts | 345° |
| 2026-04-22 13:39 | 58.31238 | 90.94876 | 34168 ft | 363 kts | 345° |
| 2026-04-22 13:39 | 58.36186 | 90.93150 | 34164 ft | 364 kts | 345° |
| 2026-04-22 13:40 | 58.41091 | 90.91446 | 34148 ft | 352 kts | 345° |
| 2026-04-22 13:40 | 58.45807 | 90.89810 | 34148 ft | 344 kts | 345° |
| 2026-04-22 13:41 | 58.50534 | 90.88161 | 34172 ft | 347 kts | 344° |
| 2026-04-22 13:41 | 58.55232 | 90.86474 | 34162 ft | 347 kts | 343° |
| 2026-04-22 13:42 | 58.59932 | 90.84660 | 34160 ft | 345 kts | 343° |
| 2026-04-22 13:42 | 58.64623 | 90.82838 | 34155 ft | 345 kts | 343° |
| 2026-04-22 13:43 | 58.69315 | 90.81008 | 34157 ft | 345 kts | 343° |
| 2026-04-22 13:43 | 58.74012 | 90.79176 | 34152 ft | 345 kts | 343° |
| 2026-04-22 13:44 | 58.78669 | 90.77363 | 34152 ft | 345 kts | 343° |
| 2026-04-22 13:44 | 58.83351 | 90.75532 | 34148 ft | 345 kts | 344° |
| 2026-04-22 13:45 | 58.88057 | 90.73693 | 34154 ft | 345 kts | 344° |
| 2026-04-22 13:45 | 58.92721 | 90.71876 | 34143 ft | 344 kts | 344° |
| 2026-04-22 13:46 | 58.97400 | 90.70042 | 34148 ft | 344 kts | 344° |
| 2026-04-22 13:46 | 59.02071 | 90.68222 | 34146 ft | 344 kts | 344° |
| 2026-04-22 13:47 | 59.06753 | 90.66402 | 34150 ft | 344 kts | 344° |
| 2026-04-22 13:47 | 59.11438 | 90.64571 | 34160 ft | 345 kts | 344° |
| 2026-04-22 13:48 | 59.16146 | 90.62737 | 34174 ft | 346 kts | 344° |
| 2026-04-22 13:48 | 59.20833 | 90.60917 | 34173 ft | 345 kts | 344° |
| 2026-04-22 13:49 | 59.25505 | 90.59084 | 34187 ft | 345 kts | 344° |
| 2026-04-22 13:49 | 59.30219 | 90.57249 | 34190 ft | 344 kts | 344° |
| 2026-04-22 13:50 | 59.34880 | 90.55427 | 34189 ft | 344 kts | 344° |
| 2026-04-22 13:50 | 59.39538 | 90.53609 | 34186 ft | 344 kts | 344° |
| 2026-04-22 13:51 | 59.44225 | 90.51782 | 34179 ft | 344 kts | 345° |
| 2026-04-22 13:51 | 59.48914 | 90.49950 | 34188 ft | 344 kts | 345° |
| 2026-04-22 13:52 | 59.53576 | 90.48130 | 34177 ft | 344 kts | 345° |
| 2026-04-22 13:52 | 59.58281 | 90.46300 | 34184 ft | 344 kts | 345° |
| 2026-04-22 13:53 | 59.62956 | 90.44478 | 34185 ft | 344 kts | 345° |
| 2026-04-22 13:53 | 59.67642 | 90.42651 | 34183 ft | 345 kts | 345° |
| 2026-04-22 13:54 | 59.72322 | 90.40829 | 34182 ft | 345 kts | 345° |
| 2026-04-22 13:54 | 59.77005 | 90.39006 | 34181 ft | 344 kts | 345° |
| 2026-04-22 13:55 | 59.81671 | 90.37181 | 34189 ft | 343 kts | 345° |
| 2026-04-22 13:55 | 59.86334 | 90.35366 | 34181 ft | 344 kts | 345° |
| 2026-04-22 13:56 | 59.91012 | 90.33535 | 34199 ft | 344 kts | 344° |
| 2026-04-22 13:56 | 59.95722 | 90.31701 | 34198 ft | 344 kts | 344° |
| 2026-04-22 13:57 | 60.00385 | 90.29874 | 34187 ft | 342 kts | 344° |
| 2026-04-22 13:57 | 60.05011 | 90.27982 | 34186 ft | 343 kts | 344° |
| 2026-04-22 13:58 | 60.09671 | 90.26058 | 34198 ft | 343 kts | 344° |
| 2026-04-22 13:58 | 60.14368 | 90.24143 | 34218 ft | 344 kts | 344° |
| 2026-04-22 13:59 | 60.19043 | 90.22225 | 34216 ft | 343 kts | 344° |
| 2026-04-22 13:59 | 60.23701 | 90.20318 | 34210 ft | 343 kts | 344° |
| 2026-04-22 14:00 | 60.28443 | 90.19086 | 34213 ft | 348 kts | 351° |
| 2026-04-22 14:00 | 60.33254 | 90.18511 | 34214 ft | 348 kts | 351° |
| 2026-04-22 14:01 | 60.38084 | 90.17905 | 34207 ft | 347 kts | 351° |
| 2026-04-22 14:01 | 60.42875 | 90.17281 | 34201 ft | 348 kts | 351° |
| 2026-04-22 14:02 | 60.47702 | 90.16647 | 34197 ft | 349 kts | 351° |
| 2026-04-22 14:02 | 60.52507 | 90.16008 | 34194 ft | 348 kts | 351° |
| 2026-04-22 14:03 | 60.57322 | 90.15366 | 34197 ft | 349 kts | 351° |
| 2026-04-22 14:03 | 60.62144 | 90.14717 | 34200 ft | 349 kts | 351° |
| 2026-04-22 14:04 | 60.66975 | 90.14066 | 34198 ft | 348 kts | 351° |
| 2026-04-22 14:04 | 60.71789 | 90.13415 | 34201 ft | 348 kts | 351° |
| 2026-04-22 14:05 | 60.76602 | 90.12769 | 34189 ft | 348 kts | 351° |
| 2026-04-22 14:06 | 60.83820 | 90.11786 | 34202 ft | 350 kts | 351° |
| 2026-04-22 14:06 | 60.88629 | 90.11137 | 34184 ft | 348 kts | 351° |
| 2026-04-22 14:07 | 60.93466 | 90.10477 | 34191 ft | 350 kts | 351° |
| 2026-04-22 14:07 | 60.98273 | 90.09824 | 34196 ft | 349 kts | 351° |
| 2026-04-22 14:08 | 61.03135 | 90.09168 | 34185 ft | 349 kts | 351° |
| 2026-04-22 14:08 | 61.07965 | 90.08518 | 34189 ft | 350 kts | 351° |
| 2026-04-22 14:09 | 61.12809 | 90.07851 | 34199 ft | 350 kts | 351° |
| 2026-04-22 14:09 | 61.17535 | 90.07214 | 34182 ft | 351 kts | 351° |
| 2026-04-22 14:10 | 61.22371 | 90.06546 | 34192 ft | 350 kts | 351° |
| 2026-04-22 14:10 | 61.27213 | 90.05875 | 34190 ft | 350 kts | 351° |
| 2026-04-22 14:11 | 61.32047 | 90.05208 | 34194 ft | 350 kts | 351° |
| 2026-04-22 14:11 | 61.36890 | 90.04535 | 34193 ft | 351 kts | 351° |
| 2026-04-22 14:12 | 61.41741 | 90.03858 | 34186 ft | 351 kts | 351° |
| 2026-04-22 14:12 | 61.46591 | 90.03186 | 34192 ft | 351 kts | 351° |
| 2026-04-22 14:13 | 61.51447 | 90.02509 | 34199 ft | 350 kts | 351° |
| 2026-04-22 14:13 | 61.56266 | 90.01840 | 34191 ft | 350 kts | 351° |
| 2026-04-22 14:14 | 61.61105 | 90.00923 | 34184 ft | 349 kts | 345° |
| 2026-04-22 14:14 | 61.65834 | 89.98811 | 34195 ft | 349 kts | 344° |
| 2026-04-22 14:15 | 61.70542 | 89.96693 | 34189 ft | 348 kts | 344° |
| 2026-04-22 14:15 | 61.75256 | 89.94599 | 34181 ft | 348 kts | 345° |
| 2026-04-22 14:16 | 61.79980 | 89.92506 | 34206 ft | 349 kts | 345° |
| 2026-04-22 14:16 | 61.84718 | 89.90417 | 34199 ft | 349 kts | 345° |
| 2026-04-22 14:17 | 61.89460 | 89.88326 | 34195 ft | 349 kts | 345° |
| 2026-04-22 14:17 | 61.94182 | 89.86232 | 34199 ft | 350 kts | 345° |
| 2026-04-22 14:18 | 61.98915 | 89.84137 | 34182 ft | 350 kts | 345° |
| 2026-04-22 14:18 | 62.03655 | 89.82041 | 34194 ft | 350 kts | 345° |
| 2026-04-22 14:19 | 62.08413 | 89.79916 | 34191 ft | 350 kts | 345° |
| 2026-04-22 14:19 | 62.13166 | 89.77735 | 34214 ft | 351 kts | 345° |
| 2026-04-22 14:20 | 62.20197 | 89.74487 | 34210 ft | 349 kts | 345° |
| 2026-04-22 14:20 | 62.24914 | 89.72307 | 34211 ft | 350 kts | 345° |
| 2026-04-22 14:21 | 62.32052 | 89.69006 | 34214 ft | 351 kts | 345° |
| 2026-04-22 14:22 | 62.39195 | 89.65703 | 34215 ft | 351 kts | 345° |
| 2026-04-22 14:23 | 62.46331 | 89.62403 | 34213 ft | 352 kts | 345° |
| 2026-04-22 14:23 | 62.51101 | 89.60194 | 34221 ft | 351 kts | 345° |
| 2026-04-22 14:24 | 62.55850 | 89.57994 | 34213 ft | 351 kts | 345° |
| 2026-04-22 14:24 | 62.60593 | 89.55808 | 34212 ft | 351 kts | 345° |
| 2026-04-22 14:25 | 62.65366 | 89.53600 | 34202 ft | 352 kts | 345° |
| 2026-04-22 14:25 | 62.70122 | 89.51399 | 34202 ft | 352 kts | 345° |
| 2026-04-22 14:26 | 62.74895 | 89.49197 | 34201 ft | 352 kts | 345° |
| 2026-04-22 14:26 | 62.79679 | 89.46984 | 34195 ft | 353 kts | 345° |
| 2026-04-22 14:27 | 62.84446 | 89.44780 | 34196 ft | 353 kts | 345° |
| 2026-04-22 14:27 | 62.89227 | 89.42567 | 34186 ft | 353 kts | 345° |
| 2026-04-22 14:28 | 62.94011 | 89.40350 | 34197 ft | 353 kts | 345° |
| 2026-04-22 14:28 | 62.98822 | 89.38132 | 34196 ft | 353 kts | 345° |
| 2026-04-22 14:29 | 63.03621 | 89.35921 | 34193 ft | 353 kts | 345° |
| 2026-04-22 14:29 | 63.08408 | 89.33698 | 34208 ft | 353 kts | 345° |
| 2026-04-22 14:30 | 63.13236 | 89.31443 | 34226 ft | 354 kts | 344° |
| 2026-04-22 14:30 | 63.17934 | 89.29126 | 34233 ft | 354 kts | 344° |
| 2026-04-22 14:31 | 63.22729 | 89.26714 | 34229 ft | 354 kts | 343° |
| 2026-04-22 14:31 | 63.27517 | 89.24287 | 34226 ft | 355 kts | 344° |
| 2026-04-22 14:32 | 63.32312 | 89.21860 | 34210 ft | 355 kts | 344° |
| 2026-04-22 14:32 | 63.37103 | 89.19422 | 34212 ft | 355 kts | 344° |
| 2026-04-22 14:33 | 63.41895 | 89.16988 | 34199 ft | 355 kts | 344° |
| 2026-04-22 14:33 | 63.46685 | 89.14555 | 34192 ft | 356 kts | 344° |
| 2026-04-22 14:34 | 63.51485 | 89.12121 | 34201 ft | 356 kts | 344° |
| 2026-04-22 14:34 | 63.56290 | 89.09671 | 34192 ft | 355 kts | 344° |
| 2026-04-22 14:35 | 63.61098 | 89.07229 | 34199 ft | 357 kts | 344° |
| 2026-04-22 14:35 | 63.65916 | 89.04785 | 34209 ft | 357 kts | 344° |
| 2026-04-22 14:36 | 63.70763 | 89.02326 | 34205 ft | 357 kts | 344° |
| 2026-04-22 14:36 | 63.75576 | 88.99877 | 34214 ft | 358 kts | 345° |
| 2026-04-22 14:37 | 63.80434 | 88.97424 | 34199 ft | 358 kts | 344° |
| 2026-04-22 14:37 | 63.85281 | 88.94958 | 34196 ft | 358 kts | 344° |
| 2026-04-22 14:38 | 63.90095 | 88.92510 | 34196 ft | 358 kts | 344° |
| 2026-04-22 14:38 | 63.94953 | 88.90040 | 34203 ft | 359 kts | 345° |
| 2026-04-22 14:39 | 63.99790 | 88.87576 | 34194 ft | 359 kts | 345° |
| 2026-04-22 14:39 | 64.04640 | 88.85111 | 34199 ft | 359 kts | 345° |
| 2026-04-22 14:40 | 64.11931 | 88.81417 | 34213 ft | 360 kts | 345° |
| 2026-04-22 14:40 | 64.16711 | 88.78996 | 34218 ft | 360 kts | 345° |
| 2026-04-22 14:41 | 64.21523 | 88.76560 | 34219 ft | 361 kts | 345° |
| 2026-04-22 14:41 | 64.26424 | 88.74066 | 34220 ft | 361 kts | 345° |
| 2026-04-22 14:42 | 64.31292 | 88.71590 | 34219 ft | 361 kts | 345° |
| 2026-04-22 14:42 | 64.36166 | 88.69119 | 34217 ft | 361 kts | 345° |
| 2026-04-22 14:43 | 64.41047 | 88.66640 | 34213 ft | 362 kts | 345° |
| 2026-04-22 14:43 | 64.45946 | 88.64148 | 34203 ft | 363 kts | 345° |
| 2026-04-22 14:44 | 64.50851 | 88.61663 | 34204 ft | 364 kts | 345° |
| 2026-04-22 14:44 | 64.55792 | 88.59159 | 34205 ft | 362 kts | 345° |
| 2026-04-22 14:45 | 64.60698 | 88.56669 | 34213 ft | 363 kts | 345° |
| 2026-04-22 14:45 | 64.65588 | 88.54193 | 34221 ft | 363 kts | 346° |
| 2026-04-22 14:46 | 64.70546 | 88.51675 | 34234 ft | 365 kts | 346° |
| 2026-04-22 14:46 | 64.75461 | 88.49184 | 34233 ft | 365 kts | 346° |
| 2026-04-22 14:47 | 64.80383 | 88.46696 | 34232 ft | 364 kts | 346° |
| 2026-04-22 14:47 | 64.85312 | 88.44192 | 34236 ft | 365 kts | 346° |
| 2026-04-22 14:48 | 64.90277 | 88.41665 | 34236 ft | 366 kts | 346° |
| 2026-04-22 14:48 | 64.95218 | 88.39162 | 34230 ft | 366 kts | 346° |
| 2026-04-22 14:49 | 65.00198 | 88.36634 | 34230 ft | 367 kts | 346° |
| 2026-04-22 14:49 | 65.05144 | 88.34102 | 34224 ft | 366 kts | 345° |
| 2026-04-22 14:50 | 65.10028 | 88.31498 | 34220 ft | 366 kts | 345° |
| 2026-04-22 14:50 | 65.14778 | 88.28966 | 34227 ft | 367 kts | 345° |
| 2026-04-22 14:51 | 65.19610 | 88.26388 | 34221 ft | 368 kts | 345° |
| 2026-04-22 14:51 | 65.24567 | 88.23740 | 34222 ft | 367 kts | 345° |
| 2026-04-22 14:52 | 65.29546 | 88.21085 | 34217 ft | 367 kts | 345° |
| 2026-04-22 14:52 | 65.34512 | 88.18426 | 34224 ft | 368 kts | 345° |
| 2026-04-22 14:53 | 65.39479 | 88.15758 | 34230 ft | 369 kts | 345° |
| 2026-04-22 14:53 | 65.44465 | 88.13039 | 34244 ft | 369 kts | 345° |
| 2026-04-22 14:54 | 65.49461 | 88.10303 | 34253 ft | 370 kts | 345° |
| 2026-04-22 14:54 | 65.54427 | 88.07575 | 34250 ft | 369 kts | 345° |
| 2026-04-22 14:55 | 65.59438 | 88.04825 | 34241 ft | 369 kts | 345° |
| 2026-04-22 14:55 | 65.64424 | 88.02094 | 34242 ft | 370 kts | 345° |
| 2026-04-22 14:56 | 65.69429 | 87.99352 | 34247 ft | 371 kts | 345° |
| 2026-04-22 14:56 | 65.74463 | 87.96598 | 34251 ft | 371 kts | 345° |
| 2026-04-22 14:57 | 65.79447 | 87.93861 | 34242 ft | 370 kts | 346° |
| 2026-04-22 14:57 | 65.84585 | 87.92783 | 34253 ft | 373 kts | 354° |
| 2026-04-22 14:58 | 65.89748 | 87.92087 | 34243 ft | 374 kts | 354° |
| 2026-04-22 14:58 | 65.94923 | 87.91351 | 34244 ft | 374 kts | 354° |
| 2026-04-22 14:59 | 66.00075 | 87.90599 | 34242 ft | 376 kts | 354° |
| 2026-04-22 14:59 | 66.05299 | 87.89830 | 34244 ft | 376 kts | 354° |
| 2026-04-22 15:00 | 66.10487 | 87.89066 | 34239 ft | 375 kts | 354° |
| 2026-04-22 15:00 | 66.15655 | 87.88316 | 34236 ft | 375 kts | 354° |
| 2026-04-22 15:01 | 66.20874 | 87.87557 | 34242 ft | 375 kts | 354° |
| 2026-04-22 15:01 | 66.26057 | 87.86794 | 34240 ft | 376 kts | 354° |
| 2026-04-22 15:02 | 66.31224 | 87.85979 | 34239 ft | 376 kts | 354° |
| 2026-04-22 15:02 | 66.36437 | 87.85161 | 34239 ft | 377 kts | 354° |
| 2026-04-22 15:03 | 66.41653 | 87.84338 | 34243 ft | 377 kts | 354° |
| 2026-04-22 15:03 | 66.46873 | 87.83507 | 34247 ft | 378 kts | 354° |
| 2026-04-22 15:04 | 66.52099 | 87.82681 | 34249 ft | 378 kts | 354° |
| 2026-04-22 15:04 | 66.57298 | 87.81855 | 34244 ft | 378 kts | 354° |
| 2026-04-22 15:05 | 66.62544 | 87.81023 | 34243 ft | 379 kts | 354° |
| 2026-04-22 15:05 | 66.67782 | 87.80194 | 34233 ft | 379 kts | 354° |
| 2026-04-22 15:06 | 66.73000 | 87.79367 | 34224 ft | 379 kts | 354° |
| 2026-04-22 15:06 | 66.78256 | 87.78532 | 34219 ft | 379 kts | 354° |
| 2026-04-22 15:07 | 66.83457 | 87.77702 | 34222 ft | 379 kts | 355° |
| 2026-04-22 15:07 | 66.88688 | 87.76878 | 34214 ft | 378 kts | 355° |
| 2026-04-22 15:08 | 66.93916 | 87.76056 | 34229 ft | 379 kts | 354° |
| 2026-04-22 15:08 | 66.99165 | 87.75220 | 34235 ft | 380 kts | 354° |
| 2026-04-22 15:09 | 67.04403 | 87.74380 | 34240 ft | 381 kts | 355° |
| 2026-04-22 15:09 | 67.09670 | 87.73471 | 34232 ft | 381 kts | 354° |
| 2026-04-22 15:10 | 67.14839 | 87.72501 | 34242 ft | 380 kts | 354° |
| 2026-04-22 15:10 | 67.20017 | 87.71513 | 34241 ft | 380 kts | 354° |
| 2026-04-22 15:11 | 67.25270 | 87.70508 | 34242 ft | 381 kts | 354° |
| 2026-04-22 15:11 | 67.30531 | 87.69498 | 34242 ft | 382 kts | 354° |
| 2026-04-22 15:12 | 67.35806 | 87.68484 | 34242 ft | 382 kts | 354° |
| 2026-04-22 15:12 | 67.41058 | 87.67474 | 34239 ft | 382 kts | 354° |
| 2026-04-22 15:13 | 67.46329 | 87.66460 | 34237 ft | 381 kts | 354° |
| 2026-04-22 15:13 | 67.51605 | 87.65447 | 34231 ft | 382 kts | 354° |
| 2026-04-22 15:14 | 67.56875 | 87.64437 | 34238 ft | 383 kts | 354° |
| 2026-04-22 15:14 | 67.62182 | 87.63423 | 34238 ft | 383 kts | 354° |
| 2026-04-22 15:15 | 67.67459 | 87.62418 | 34241 ft | 384 kts | 354° |
| 2026-04-22 15:15 | 67.72759 | 87.61388 | 34262 ft | 383 kts | 354° |
| 2026-04-22 15:16 | 67.78085 | 87.60356 | 34275 ft | 394 kts | 355° |
| 2026-04-22 15:16 | 67.80772 | 87.59838 | 34165 ft | 390 kts | 355° |
| 2026-04-22 15:16 | 67.83466 | 87.59326 | 33446 ft | 397 kts | 355° |
| 2026-04-22 15:17 | 67.86231 | 87.58805 | 32837 ft | 397 kts | 355° |
| 2026-04-22 15:17 | 67.88944 | 87.58288 | 32382 ft | 392 kts | 355° |
| 2026-04-22 15:17 | 67.91634 | 87.57774 | 31904 ft | 388 kts | 355° |
| 2026-04-22 15:17 | 67.94288 | 87.57266 | 31403 ft | 383 kts | 355° |
| 2026-04-22 15:18 | 67.96887 | 87.56760 | 30793 ft | 378 kts | 355° |
| 2026-04-22 15:18 | 67.99483 | 87.56254 | 30183 ft | 373 kts | 355° |
| 2026-04-22 15:18 | 68.02046 | 87.55759 | 29553 ft | 369 kts | 355° |
| 2026-04-22 15:18 | 68.04552 | 87.55273 | 28909 ft | 365 kts | 355° |
| 2026-04-22 15:19 | 68.07062 | 87.54791 | 28271 ft | 361 kts | 355° |
| 2026-04-22 15:19 | 68.09548 | 87.54313 | 27635 ft | 357 kts | 355° |
| 2026-04-22 15:19 | 68.11980 | 87.53843 | 27014 ft | 354 kts | 355° |
| 2026-04-22 15:19 | 68.14434 | 87.53369 | 26387 ft | 350 kts | 355° |
| 2026-04-22 15:20 | 68.15848 | 87.53095 | 26046 ft | 349 kts | 355° |
| 2026-04-22 15:20 | 68.19055 | 87.52477 | 25262 ft | 345 kts | 355° |
| 2026-04-22 15:20 | 68.21362 | 87.52034 | 24717 ft | 342 kts | 355° |
| 2026-04-22 15:20 | 68.23695 | 87.51590 | 24162 ft | 340 kts | 356° |
| 2026-04-22 15:21 | 68.26024 | 87.51144 | 23585 ft | 338 kts | 356° |
| 2026-04-22 15:21 | 68.28349 | 87.50697 | 23025 ft | 335 kts | 356° |
| 2026-04-22 15:21 | 68.30651 | 87.50256 | 22469 ft | 332 kts | 356° |
| 2026-04-22 15:21 | 68.32936 | 87.49818 | 21915 ft | 330 kts | 356° |
| 2026-04-22 15:22 | 68.35210 | 87.49380 | 21354 ft | 328 kts | 356° |
| 2026-04-22 15:22 | 68.37465 | 87.48946 | 20789 ft | 326 kts | 356° |
| 2026-04-22 15:22 | 68.39703 | 87.48514 | 20230 ft | 323 kts | 356° |
| 2026-04-22 15:22 | 68.41898 | 87.48092 | 19700 ft | 320 kts | 356° |
| 2026-04-22 15:23 | 68.44113 | 87.47669 | 19152 ft | 318 kts | 356° |
| 2026-04-22 15:23 | 68.46294 | 87.47255 | 18621 ft | 315 kts | 356° |
| 2026-04-22 15:23 | 68.48463 | 87.46842 | 18059 ft | 313 kts | 356° |
| 2026-04-22 15:23 | 68.50622 | 87.46430 | 17502 ft | 312 kts | 356° |
| 2026-04-22 15:24 | 68.52750 | 87.46024 | 16956 ft | 310 kts | 356° |
| 2026-04-22 15:24 | 68.54874 | 87.45618 | 16442 ft | 307 kts | 356° |
| 2026-04-22 15:24 | 68.56990 | 87.45211 | 15921 ft | 306 kts | 356° |
| 2026-04-22 15:24 | 68.59101 | 87.44807 | 15381 ft | 304 kts | 356° |
| 2026-04-22 15:25 | 68.61184 | 87.44408 | 14868 ft | 302 kts | 356° |
| 2026-04-22 15:25 | 68.63270 | 87.44009 | 14334 ft | 301 kts | 356° |
| 2026-04-22 15:25 | 68.65334 | 87.43617 | 13828 ft | 299 kts | 356° |
| 2026-04-22 15:25 | 68.67396 | 87.43220 | 13319 ft | 298 kts | 356° |
| 2026-04-22 15:26 | 68.69448 | 87.42824 | 12816 ft | 296 kts | 356° |
| 2026-04-22 15:26 | 68.71494 | 87.42431 | 12318 ft | 295 kts | 356° |
| 2026-04-22 15:26 | 68.73511 | 87.42046 | 11817 ft | 294 kts | 356° |
| 2026-04-22 15:26 | 68.75536 | 87.41660 | 11326 ft | 292 kts | 356° |
| 2026-04-22 15:27 | 68.77545 | 87.41276 | 10859 ft | 290 kts | 356° |
| 2026-04-22 15:27 | 68.79536 | 87.40897 | 10383 ft | 289 kts | 356° |
| 2026-04-22 15:27 | 68.81529 | 87.40509 | 9913 ft | 288 kts | 356° |
| 2026-04-22 15:27 | 68.83508 | 87.40129 | 9455 ft | 286 kts | 356° |
| 2026-04-22 15:28 | 68.85500 | 87.39742 | 8980 ft | 285 kts | 356° |
| 2026-04-22 15:28 | 68.87441 | 87.39374 | 8523 ft | 284 kts | 356° |
| 2026-04-22 15:28 | 68.89415 | 87.39890 | 8165 ft | 291 kts | 12° |
| 2026-04-22 15:28 | 68.91394 | 87.40981 | 8236 ft | 290 kts | 11° |
| 2026-04-22 15:29 | 68.93327 | 87.42057 | 8190 ft | 278 kts | 11° |
| 2026-04-22 15:29 | 68.95147 | 87.43068 | 8105 ft | 265 kts | 11° |
| 2026-04-22 15:29 | 68.96933 | 87.44056 | 7811 ft | 262 kts | 11° |
| 2026-04-22 15:30 | 68.99910 | 87.45692 | 7235 ft | 260 kts | 11° |
| 2026-04-22 15:30 | 69.02261 | 87.46986 | 6804 ft | 259 kts | 11° |
| 2026-04-22 15:30 | 69.04022 | 87.47948 | 6483 ft | 258 kts | 11° |
| 2026-04-22 15:30 | 69.05769 | 87.48905 | 6150 ft | 257 kts | 11° |
| 2026-04-22 15:31 | 69.07499 | 87.49850 | 5824 ft | 257 kts | 11° |
| 2026-04-22 15:31 | 69.09250 | 87.50806 | 5492 ft | 257 kts | 11° |
| 2026-04-22 15:31 | 69.10989 | 87.51819 | 5156 ft | 256 kts | 16° |
| 2026-04-22 15:31 | 69.12656 | 87.53603 | 4988 ft | 257 kts | 22° |
| 2026-04-22 15:32 | 69.14265 | 87.55374 | 5023 ft | 257 kts | 22° |
| 2026-04-22 15:32 | 69.15906 | 87.57217 | 4992 ft | 257 kts | 22° |
| 2026-04-22 15:32 | 69.17554 | 87.59052 | 4989 ft | 247 kts | 22° |
| 2026-04-22 15:32 | 69.19108 | 87.60775 | 4967 ft | 236 kts | 22° |
| 2026-04-22 15:33 | 69.20617 | 87.62444 | 4974 ft | 232 kts | 22° |
| 2026-04-22 15:33 | 69.22120 | 87.64110 | 4989 ft | 233 kts | 22° |
| 2026-04-22 15:33 | 69.23633 | 87.65784 | 4998 ft | 234 kts | 22° |
| 2026-04-22 15:33 | 69.25148 | 87.67462 | 4996 ft | 235 kts | 22° |
| 2026-04-22 15:34 | 69.26669 | 87.69152 | 4992 ft | 236 kts | 21° |
| 2026-04-22 15:34 | 69.28195 | 87.70847 | 4997 ft | 235 kts | 21° |
| 2026-04-22 15:34 | 69.29703 | 87.72520 | 4996 ft | 235 kts | 21° |
| 2026-04-22 15:34 | 69.31233 | 87.74220 | 4998 ft | 235 kts | 21° |
| 2026-04-22 15:35 | 69.32237 | 87.75339 | 5001 ft | 236 kts | 21° |
| 2026-04-22 15:35 | 69.34268 | 87.77601 | 5012 ft | 236 kts | 21° |
| 2026-04-22 15:35 | 69.35780 | 87.79291 | 5004 ft | 237 kts | 21° |
| 2026-04-22 15:35 | 69.37284 | 87.80974 | 4936 ft | 225 kts | 21° |
| 2026-04-22 15:36 | 69.38710 | 87.82569 | 4701 ft | 217 kts | 21° |
| 2026-04-22 15:36 | 69.40178 | 87.83253 | 4410 ft | 211 kts | 354° |
| 2026-04-22 15:36 | 69.41546 | 87.82274 | 4177 ft | 204 kts | 334° |
| 2026-04-22 15:36 | 69.42708 | 87.80175 | 3995 ft | 193 kts | 315° |
| 2026-04-22 15:37 | 69.43536 | 87.77383 | 4138 ft | 181 kts | 302° |
| 2026-04-22 15:37 | 69.44231 | 87.74477 | 3993 ft | 175 kts | 300° |
| 2026-04-22 15:37 | 69.44894 | 87.71573 | 3628 ft | 174 kts | 299° |
| 2026-04-22 15:37 | 69.45536 | 87.68681 | 3347 ft | 175 kts | 295° |
| 2026-04-22 15:38 | 69.45763 | 87.65411 | 3019 ft | 167 kts | 260° |
| 2026-04-22 15:38 | 69.44672 | 87.60072 | 2521 ft | 155 kts | 224° |
| 2026-04-22 15:38 | 69.43967 | 87.57793 | 2530 ft | 152 kts | 224° |
| 2026-04-22 15:39 | 69.43231 | 87.55816 | 2521 ft | 141 kts | 218° |
| 2026-04-22 15:39 | 69.42481 | 87.54092 | 2500 ft | 136 kts | 215° |
| 2026-04-22 15:39 | 69.41726 | 87.52515 | 2526 ft | 135 kts | 213° |
| 2026-04-22 15:39 | 69.40952 | 87.51001 | 2525 ft | 135 kts | 212° |
| 2026-04-22 15:40 | 69.40166 | 87.49519 | 2523 ft | 136 kts | 211° |
| 2026-04-22 15:40 | 69.39381 | 87.48074 | 2493 ft | 137 kts | 211° |
| 2026-04-22 15:40 | 69.38598 | 87.46645 | 2301 ft | 129 kts | 210° |
| 2026-04-22 15:40 | 69.37871 | 87.45324 | 2094 ft | 121 kts | 210° |
| 2026-04-22 15:41 | 69.37168 | 87.44054 | 1923 ft | 118 kts | 209° |
| 2026-04-22 15:41 | 69.36481 | 87.42822 | 1763 ft | 118 kts | 209° |
| 2026-04-22 15:41 | 69.35783 | 87.41571 | 1598 ft | 119 kts | 209° |
| 2026-04-22 15:41 | 69.35075 | 87.40301 | 1418 ft | 122 kts | 209° |
| 2026-04-22 15:42 | 69.34357 | 87.38983 | 1233 ft | 125 kts | 210° |
| 2026-04-22 15:42 | 69.33623 | 87.37663 | 1054 ft | 126 kts | 208° |
| 2026-04-22 15:42 | 69.32876 | 87.36361 | 864 ft | 126 kts | 210° |
| 2026-04-22 15:42 | 69.32143 | 87.35058 | 667 ft | 127 kts | 210° |
| 2026-04-22 15:43 | 69.31454 | 87.33826 | 595 ft | 86 kts | 212° |
| 2026-04-22 15:43 | 69.31111 | 87.33212 | 595 ft | 43 kts | 213° |
| 2026-04-22 15:43 | 69.30974 | 87.32976 | 595 ft | 10 kts | 203° |
| 2026-04-22 15:43 | 69.30942 | 87.32906 | 595 ft | 3 kts | 301° |
| 2026-04-22 15:44 | 69.30959 | 87.32917 | 595 ft | 2 kts | 42° |
| 2026-04-22 15:44 | 69.30972 | 87.32952 | 595 ft | 2 kts | 40° |
| 2026-04-22 15:44 | 69.30991 | 87.32990 | 595 ft | 5 kts | 34° |
| 2026-04-22 15:44 | 69.31047 | 87.33096 | 595 ft | 14 kts | 33° |
| 2026-04-22 15:45 | 69.31152 | 87.33295 | 595 ft | 22 kts | 33° |
| 2026-04-22 15:45 | 69.31278 | 87.33534 | 595 ft | 21 kts | 34° |
| 2026-04-22 15:45 | 69.31404 | 87.33746 | 595 ft | 21 kts | 32° |
| 2026-04-22 15:45 | 69.31525 | 87.33966 | 595 ft | 20 kts | 33° |
| 2026-04-22 15:46 | 69.31641 | 87.34183 | 595 ft | 19 kts | 32° |
| 2026-04-22 15:46 | 69.31757 | 87.34385 | 595 ft | 19 kts | 31° |
| 2026-04-22 15:46 | 69.31849 | 87.34547 | 595 ft | 13 kts | 32° |
| 2026-04-22 15:46 | 69.31930 | 87.34626 | 595 ft | 11 kts | 342° |
| 2026-04-22 15:47 | 69.31979 | 87.34473 | 595 ft | 10 kts | 302° |
| 2026-04-22 15:47 | 69.32018 | 87.34304 | 595 ft | 9 kts | 302° |
| 2026-04-22 15:47 | 69.32054 | 87.34145 | 595 ft | 9 kts | 302° |
| 2026-04-22 15:47 | 69.32100 | 87.34044 | 595 ft | 8 kts | 357° |
| 2026-04-22 15:48 | 69.32152 | 87.34101 | 595 ft | 7 kts | 32° |
| 2026-04-22 15:48 | 69.32195 | 87.34175 | 595 ft | 5 kts | 19° |
| 2026-04-22 15:48 | 69.32234 | 87.34156 | 595 ft | 5 kts | 347° |
| 2026-04-22 15:48 | 69.32269 | 87.34136 | 595 ft | 5 kts | 348° |
| 2026-04-22 15:49 | 69.32302 | 87.34118 | 595 ft | 4 kts | 348° |
| 2026-04-22 15:49 | 69.32310 | 87.34113 | 595 ft | 0 kts | 348° |